sensor_id;sensor_type;location;lat;lon;timestamp;P1;durP1;ratioP1;P2;durP2;ratioP2
19111;SDS011;9688;51.906;8.376;2023-04-06T00:02:11;7.80;;;5.00;;
19111;SDS011;9688;51.906;8.376;2023-04-06T00:04:56;6.67;;;4.57;;
19111;SDS011;9688;51.906;8.376;2023-04-06T00:07:44;6.60;;;4.90;;
19111;SDS011;9688;51.906;8.376;2023-04-06T00:10:29;6.83;;;4.90;;
19111;SDS011;9688;51.906;8.376;2023-04-06T00:13:14;6.70;;;4.50;;
19111;SDS011;9688;51.906;8.376;2023-04-06T00:16:00;9.30;;;4.87;;
19111;SDS011;9688;51.906;8.376;2023-04-06T00:18:46;7.80;;;4.93;;
19111;SDS011;9688;51.906;8.376;2023-04-06T00:21:32;7.20;;;4.93;;
19111;SDS011;9688;51.906;8.376;2023-04-06T00:24:19;8.77;;;4.47;;
19111;SDS011;9688;51.906;8.376;2023-04-06T00:27:04;5.90;;;4.67;;
19111;SDS011;9688;51.906;8.376;2023-04-06T00:29:50;7.77;;;5.37;;
19111;SDS011;9688;51.906;8.376;2023-04-06T00:32:36;10.27;;;5.43;;
19111;SDS011;9688;51.906;8.376;2023-04-06T00:35:21;8.83;;;4.97;;
19111;SDS011;9688;51.906;8.376;2023-04-06T00:38:07;10.43;;;5.33;;
19111;SDS011;9688;51.906;8.376;2023-04-06T00:40:54;4.40;;;4.00;;
19111;SDS011;9688;51.906;8.376;2023-04-06T00:43:40;7.27;;;4.87;;
19111;SDS011;9688;51.906;8.376;2023-04-06T00:46:25;6.43;;;4.60;;
19111;SDS011;9688;51.906;8.376;2023-04-06T00:49:11;7.83;;;4.70;;
19111;SDS011;9688;51.906;8.376;2023-04-06T00:51:57;8.60;;;5.00;;
19111;SDS011;9688;51.906;8.376;2023-04-06T00:54:42;8.07;;;5.30;;
19111;SDS011;9688;51.906;8.376;2023-04-06T00:57:29;9.20;;;5.03;;
19111;SDS011;9688;51.906;8.376;2023-04-06T01:00:16;7.27;;;5.20;;
19111;SDS011;9688;51.906;8.376;2023-04-06T01:03:02;7.47;;;5.00;;
19111;SDS011;9688;51.906;8.376;2023-04-06T01:05:50;7.83;;;5.00;;
19111;SDS011;9688;51.906;8.376;2023-04-06T01:08:41;9.90;;;5.20;;
19111;SDS011;9688;51.906;8.376;2023-04-06T01:11:27;7.53;;;4.70;;
19111;SDS011;9688;51.906;8.376;2023-04-06T01:14:15;8.77;;;5.10;;
19111;SDS011;9688;51.906;8.376;2023-04-06T01:17:01;10.27;;;5.27;;
19111;SDS011;9688;51.906;8.376;2023-04-06T01:19:47;7.30;;;5.67;;
19111;SDS011;9688;51.906;8.376;2023-04-06T01:22:34;6.93;;;5.00;;
19111;SDS011;9688;51.906;8.376;2023-04-06T01:25:20;6.30;;;4.93;;
19111;SDS011;9688;51.906;8.376;2023-04-06T01:28:06;8.90;;;5.27;;
19111;SDS011;9688;51.906;8.376;2023-04-06T01:30:51;7.83;;;4.97;;
19111;SDS011;9688;51.906;8.376;2023-04-06T01:33:37;6.20;;;5.50;;
19111;SDS011;9688;51.906;8.376;2023-04-06T01:36:23;5.53;;;4.80;;
19111;SDS011;9688;51.906;8.376;2023-04-06T01:39:10;7.10;;;4.97;;
19111;SDS011;9688;51.906;8.376;2023-04-06T01:41:55;7.30;;;5.57;;
19111;SDS011;9688;51.906;8.376;2023-04-06T01:44:41;8.67;;;5.33;;
19111;SDS011;9688;51.906;8.376;2023-04-06T01:47:27;6.90;;;5.73;;
19111;SDS011;9688;51.906;8.376;2023-04-06T01:50:13;10.27;;;5.80;;
19111;SDS011;9688;51.906;8.376;2023-04-06T01:52:59;6.53;;;5.13;;
19111;SDS011;9688;51.906;8.376;2023-04-06T01:55:46;8.60;;;5.70;;
19111;SDS011;9688;51.906;8.376;2023-04-06T01:58:32;12.20;;;5.40;;
19111;SDS011;9688;51.906;8.376;2023-04-06T02:01:18;6.47;;;5.80;;
19111;SDS011;9688;51.906;8.376;2023-04-06T02:04:03;11.13;;;5.80;;
19111;SDS011;9688;51.906;8.376;2023-04-06T02:06:49;7.00;;;5.57;;
19111;SDS011;9688;51.906;8.376;2023-04-06T02:09:35;8.30;;;6.27;;
19111;SDS011;9688;51.906;8.376;2023-04-06T02:12:22;7.43;;;5.70;;
19111;SDS011;9688;51.906;8.376;2023-04-06T02:15:08;8.90;;;5.60;;
19111;SDS011;9688;51.906;8.376;2023-04-06T02:17:57;8.07;;;5.67;;
19111;SDS011;9688;51.906;8.376;2023-04-06T02:20:44;8.07;;;5.67;;
19111;SDS011;9688;51.906;8.376;2023-04-06T02:23:29;9.57;;;6.00;;
19111;SDS011;9688;51.906;8.376;2023-04-06T02:26:15;10.03;;;5.67;;
19111;SDS011;9688;51.906;8.376;2023-04-06T02:29:02;10.53;;;6.17;;
19111;SDS011;9688;51.906;8.376;2023-04-06T02:31:47;10.87;;;6.00;;
19111;SDS011;9688;51.906;8.376;2023-04-06T02:34:33;8.90;;;5.80;;
19111;SDS011;9688;51.906;8.376;2023-04-06T02:37:19;6.60;;;5.87;;
19111;SDS011;9688;51.906;8.376;2023-04-06T02:40:05;9.43;;;5.93;;
19111;SDS011;9688;51.906;8.376;2023-04-06T02:42:52;7.83;;;5.47;;
19111;SDS011;9688;51.906;8.376;2023-04-06T02:45:39;7.23;;;5.50;;
19111;SDS011;9688;51.906;8.376;2023-04-06T02:48:25;6.40;;;5.73;;
19111;SDS011;9688;51.906;8.376;2023-04-06T02:51:11;7.17;;;5.70;;
19111;SDS011;9688;51.906;8.376;2023-04-06T02:53:57;8.90;;;5.47;;
19111;SDS011;9688;51.906;8.376;2023-04-06T02:56:43;8.50;;;5.83;;
19111;SDS011;9688;51.906;8.376;2023-04-06T02:59:29;8.30;;;5.80;;
19111;SDS011;9688;51.906;8.376;2023-04-06T03:02:15;10.07;;;6.23;;
19111;SDS011;9688;51.906;8.376;2023-04-06T03:05:02;8.80;;;6.70;;
19111;SDS011;9688;51.906;8.376;2023-04-06T03:07:47;8.20;;;5.60;;
19111;SDS011;9688;51.906;8.376;2023-04-06T03:10:33;6.67;;;5.93;;
19111;SDS011;9688;51.906;8.376;2023-04-06T03:13:18;10.53;;;6.30;;
19111;SDS011;9688;51.906;8.376;2023-04-06T03:16:04;13.90;;;5.83;;
19111;SDS011;9688;51.906;8.376;2023-04-06T03:18:51;9.00;;;6.77;;
19111;SDS011;9688;51.906;8.376;2023-04-06T03:21:36;8.87;;;6.90;;
19111;SDS011;9688;51.906;8.376;2023-04-06T03:24:22;12.73;;;7.00;;
19111;SDS011;9688;51.906;8.376;2023-04-06T03:27:09;12.40;;;7.07;;
19111;SDS011;9688;51.906;8.376;2023-04-06T03:29:54;9.97;;;6.20;;
19111;SDS011;9688;51.906;8.376;2023-04-06T03:32:40;11.07;;;6.90;;
19111;SDS011;9688;51.906;8.376;2023-04-06T03:35:26;9.57;;;6.67;;
19111;SDS011;9688;51.906;8.376;2023-04-06T03:38:12;11.43;;;7.20;;
19111;SDS011;9688;51.906;8.376;2023-04-06T03:40:58;13.83;;;7.00;;
19111;SDS011;9688;51.906;8.376;2023-04-06T03:43:43;14.03;;;7.20;;
19111;SDS011;9688;51.906;8.376;2023-04-06T03:46:29;17.70;;;7.63;;
19111;SDS011;9688;51.906;8.376;2023-04-06T03:49:15;12.43;;;7.70;;
19111;SDS011;9688;51.906;8.376;2023-04-06T03:52:02;14.10;;;6.70;;
19111;SDS011;9688;51.906;8.376;2023-04-06T03:54:47;10.17;;;6.50;;
19111;SDS011;9688;51.906;8.376;2023-04-06T03:57:33;10.50;;;6.30;;
19111;SDS011;9688;51.906;8.376;2023-04-06T04:00:19;9.87;;;6.63;;
19111;SDS011;9688;51.906;8.376;2023-04-06T04:03:05;12.03;;;6.70;;
19111;SDS011;9688;51.906;8.376;2023-04-06T04:05:50;11.90;;;6.73;;
19111;SDS011;9688;51.906;8.376;2023-04-06T04:08:38;9.30;;;6.10;;
19111;SDS011;9688;51.906;8.376;2023-04-06T04:11:23;11.30;;;6.33;;
19111;SDS011;9688;51.906;8.376;2023-04-06T04:14:09;12.20;;;6.53;;
19111;SDS011;9688;51.906;8.376;2023-04-06T04:16:55;9.27;;;6.20;;
19111;SDS011;9688;51.906;8.376;2023-04-06T04:19:40;10.17;;;5.73;;
19111;SDS011;9688;51.906;8.376;2023-04-06T04:22:30;12.50;;;6.87;;
19111;SDS011;9688;51.906;8.376;2023-04-06T04:25:18;10.83;;;7.07;;
19111;SDS011;9688;51.906;8.376;2023-04-06T04:28:04;10.70;;;6.67;;
19111;SDS011;9688;51.906;8.376;2023-04-06T04:30:49;9.10;;;6.53;;
19111;SDS011;9688;51.906;8.376;2023-04-06T04:33:35;11.30;;;6.57;;
19111;SDS011;9688;51.906;8.376;2023-04-06T04:36:20;11.17;;;7.37;;
19111;SDS011;9688;51.906;8.376;2023-04-06T04:39:06;11.70;;;6.47;;
19111;SDS011;9688;51.906;8.376;2023-04-06T04:41:53;10.97;;;6.20;;
19111;SDS011;9688;51.906;8.376;2023-04-06T04:44:38;12.53;;;7.00;;
19111;SDS011;9688;51.906;8.376;2023-04-06T04:47:24;11.47;;;5.83;;
19111;SDS011;9688;51.906;8.376;2023-04-06T04:50:09;11.60;;;6.83;;
19111;SDS011;9688;51.906;8.376;2023-04-06T04:52:55;8.67;;;6.43;;
19111;SDS011;9688;51.906;8.376;2023-04-06T04:55:41;10.60;;;6.87;;
19111;SDS011;9688;51.906;8.376;2023-04-06T04:58:28;14.30;;;6.97;;
19111;SDS011;9688;51.906;8.376;2023-04-06T05:01:14;10.50;;;6.43;;
19111;SDS011;9688;51.906;8.376;2023-04-06T05:03:59;11.03;;;7.03;;
19111;SDS011;9688;51.906;8.376;2023-04-06T05:06:45;10.53;;;6.77;;
19111;SDS011;9688;51.906;8.376;2023-04-06T05:09:30;9.60;;;6.60;;
19111;SDS011;9688;51.906;8.376;2023-04-06T05:12:16;11.73;;;6.83;;
19111;SDS011;9688;51.906;8.376;2023-04-06T05:15:03;11.60;;;6.97;;
19111;SDS011;9688;51.906;8.376;2023-04-06T05:17:50;11.07;;;6.73;;
19111;SDS011;9688;51.906;8.376;2023-04-06T05:20:36;11.90;;;6.53;;
19111;SDS011;9688;51.906;8.376;2023-04-06T05:23:23;12.83;;;7.00;;
19111;SDS011;9688;51.906;8.376;2023-04-06T05:26:09;16.53;;;7.97;;
19111;SDS011;9688;51.906;8.376;2023-04-06T05:28:54;11.83;;;6.20;;
19111;SDS011;9688;51.906;8.376;2023-04-06T05:31:42;11.93;;;6.83;;
19111;SDS011;9688;51.906;8.376;2023-04-06T05:34:27;12.07;;;6.53;;
19111;SDS011;9688;51.906;8.376;2023-04-06T05:37:13;13.07;;;6.97;;
19111;SDS011;9688;51.906;8.376;2023-04-06T05:39:58;9.87;;;6.30;;
19111;SDS011;9688;51.906;8.376;2023-04-06T05:42:44;12.23;;;6.73;;
19111;SDS011;9688;51.906;8.376;2023-04-06T05:45:30;13.67;;;6.80;;
19111;SDS011;9688;51.906;8.376;2023-04-06T05:48:17;8.57;;;6.60;;
19111;SDS011;9688;51.906;8.376;2023-04-06T05:51:04;9.57;;;6.73;;
19111;SDS011;9688;51.906;8.376;2023-04-06T05:53:51;12.37;;;6.97;;
19111;SDS011;9688;51.906;8.376;2023-04-06T05:56:38;12.17;;;6.73;;
19111;SDS011;9688;51.906;8.376;2023-04-06T05:59:23;10.43;;;6.43;;
19111;SDS011;9688;51.906;8.376;2023-04-06T06:02:09;9.17;;;6.00;;
19111;SDS011;9688;51.906;8.376;2023-04-06T06:04:56;10.73;;;6.63;;
19111;SDS011;9688;51.906;8.376;2023-04-06T06:07:42;14.40;;;5.97;;
19111;SDS011;9688;51.906;8.376;2023-04-06T06:10:27;9.73;;;6.20;;
19111;SDS011;9688;51.906;8.376;2023-04-06T06:13:14;11.57;;;6.33;;
19111;SDS011;9688;51.906;8.376;2023-04-06T06:16:00;13.47;;;6.37;;
19111;SDS011;9688;51.906;8.376;2023-04-06T06:18:49;9.90;;;6.37;;
19111;SDS011;9688;51.906;8.376;2023-04-06T06:21:37;11.07;;;6.07;;
19111;SDS011;9688;51.906;8.376;2023-04-06T06:24:22;12.50;;;6.80;;
19111;SDS011;9688;51.906;8.376;2023-04-06T06:27:08;8.87;;;5.77;;
19111;SDS011;9688;51.906;8.376;2023-04-06T06:29:54;9.10;;;6.80;;
19111;SDS011;9688;51.906;8.376;2023-04-06T06:32:39;7.80;;;5.77;;
19111;SDS011;9688;51.906;8.376;2023-04-06T06:35:25;8.20;;;5.53;;
19111;SDS011;9688;51.906;8.376;2023-04-06T06:38:12;8.07;;;5.87;;
19111;SDS011;9688;51.906;8.376;2023-04-06T06:40:59;12.30;;;6.40;;
19111;SDS011;9688;51.906;8.376;2023-04-06T06:43:44;13.23;;;5.97;;
19111;SDS011;9688;51.906;8.376;2023-04-06T06:46:31;12.93;;;6.40;;
19111;SDS011;9688;51.906;8.376;2023-04-06T06:49:17;8.87;;;6.27;;
19111;SDS011;9688;51.906;8.376;2023-04-06T06:52:03;12.77;;;8.50;;
19111;SDS011;9688;51.906;8.376;2023-04-06T06:54:52;8.87;;;6.53;;
19111;SDS011;9688;51.906;8.376;2023-04-06T06:57:41;10.97;;;6.03;;
19111;SDS011;9688;51.906;8.376;2023-04-06T07:00:28;9.77;;;6.03;;
19111;SDS011;9688;51.906;8.376;2023-04-06T07:03:15;10.43;;;6.27;;
19111;SDS011;9688;51.906;8.376;2023-04-06T07:06:02;8.33;;;5.73;;
19111;SDS011;9688;51.906;8.376;2023-04-06T07:08:50;7.80;;;5.97;;
19111;SDS011;9688;51.906;8.376;2023-04-06T07:11:40;10.00;;;5.70;;
19111;SDS011;9688;51.906;8.376;2023-04-06T07:14:26;8.77;;;5.93;;
19111;SDS011;9688;51.906;8.376;2023-04-06T07:17:11;9.03;;;5.83;;
19111;SDS011;9688;51.906;8.376;2023-04-06T07:19:57;7.13;;;5.43;;
19111;SDS011;9688;51.906;8.376;2023-04-06T07:22:43;8.57;;;5.53;;
19111;SDS011;9688;51.906;8.376;2023-04-06T07:25:31;10.23;;;5.87;;
19111;SDS011;9688;51.906;8.376;2023-04-06T07:28:20;8.20;;;6.00;;
19111;SDS011;9688;51.906;8.376;2023-04-06T07:31:09;7.37;;;5.77;;
19111;SDS011;9688;51.906;8.376;2023-04-06T07:33:55;9.77;;;5.93;;
19111;SDS011;9688;51.906;8.376;2023-04-06T07:36:41;11.57;;;6.40;;
19111;SDS011;9688;51.906;8.376;2023-04-06T07:39:27;8.60;;;5.50;;
19111;SDS011;9688;51.906;8.376;2023-04-06T07:42:14;10.87;;;5.57;;
19111;SDS011;9688;51.906;8.376;2023-04-06T07:45:01;7.50;;;5.50;;
19111;SDS011;9688;51.906;8.376;2023-04-06T07:47:48;10.10;;;6.03;;
19111;SDS011;9688;51.906;8.376;2023-04-06T07:50:34;8.40;;;5.63;;
19111;SDS011;9688;51.906;8.376;2023-04-06T07:53:21;10.33;;;5.50;;
19111;SDS011;9688;51.906;8.376;2023-04-06T07:56:07;8.90;;;5.50;;
19111;SDS011;9688;51.906;8.376;2023-04-06T07:58:53;11.40;;;5.40;;
19111;SDS011;9688;51.906;8.376;2023-04-06T08:01:47;7.87;;;5.80;;
19111;SDS011;9688;51.906;8.376;2023-04-06T08:04:33;6.30;;;4.93;;
19111;SDS011;9688;51.906;8.376;2023-04-06T08:07:18;8.13;;;5.67;;
19111;SDS011;9688;51.906;8.376;2023-04-06T08:10:07;13.27;;;5.97;;
19111;SDS011;9688;51.906;8.376;2023-04-06T08:12:53;7.93;;;5.77;;
19111;SDS011;9688;51.906;8.376;2023-04-06T08:15:39;7.47;;;5.80;;
19111;SDS011;9688;51.906;8.376;2023-04-06T08:18:27;9.17;;;6.17;;
19111;SDS011;9688;51.906;8.376;2023-04-06T08:21:14;10.50;;;5.77;;
19111;SDS011;9688;51.906;8.376;2023-04-06T08:24:00;8.57;;;5.40;;
19111;SDS011;9688;51.906;8.376;2023-04-06T08:26:48;11.17;;;5.53;;
19111;SDS011;9688;51.906;8.376;2023-04-06T08:29:37;10.80;;;6.03;;
19111;SDS011;9688;51.906;8.376;2023-04-06T08:32:22;8.93;;;5.80;;
19111;SDS011;9688;51.906;8.376;2023-04-06T08:35:10;10.67;;;5.70;;
19111;SDS011;9688;51.906;8.376;2023-04-06T08:37:56;10.17;;;5.60;;
19111;SDS011;9688;51.906;8.376;2023-04-06T08:40:42;8.63;;;6.30;;
19111;SDS011;9688;51.906;8.376;2023-04-06T08:43:31;10.73;;;5.60;;
19111;SDS011;9688;51.906;8.376;2023-04-06T08:46:17;9.80;;;5.70;;
19111;SDS011;9688;51.906;8.376;2023-04-06T08:49:03;11.20;;;6.30;;
19111;SDS011;9688;51.906;8.376;2023-04-06T08:51:52;7.73;;;5.80;;
19111;SDS011;9688;51.906;8.376;2023-04-06T08:54:38;10.10;;;6.17;;
19111;SDS011;9688;51.906;8.376;2023-04-06T08:57:24;9.70;;;6.03;;
19111;SDS011;9688;51.906;8.376;2023-04-06T09:00:12;8.20;;;6.10;;
19111;SDS011;9688;51.906;8.376;2023-04-06T09:03:03;9.50;;;6.27;;
19111;SDS011;9688;51.906;8.376;2023-04-06T09:05:53;8.57;;;6.80;;
19111;SDS011;9688;51.906;8.376;2023-04-06T09:08:41;11.17;;;5.60;;
19111;SDS011;9688;51.906;8.376;2023-04-06T09:11:28;13.93;;;6.63;;
19111;SDS011;9688;51.906;8.376;2023-04-06T09:14:14;9.97;;;6.13;;
19111;SDS011;9688;51.906;8.376;2023-04-06T09:17:00;8.87;;;6.10;;
19111;SDS011;9688;51.906;8.376;2023-04-06T09:19:47;10.00;;;6.57;;
19111;SDS011;9688;51.906;8.376;2023-04-06T09:22:37;9.73;;;6.50;;
19111;SDS011;9688;51.906;8.376;2023-04-06T09:25:26;9.70;;;6.30;;
19111;SDS011;9688;51.906;8.376;2023-04-06T09:28:12;9.13;;;6.30;;
19111;SDS011;9688;51.906;8.376;2023-04-06T09:30:58;11.33;;;6.90;;
19111;SDS011;9688;51.906;8.376;2023-04-06T09:33:44;10.43;;;7.10;;
19111;SDS011;9688;51.906;8.376;2023-04-06T09:36:30;13.87;;;6.60;;
19111;SDS011;9688;51.906;8.376;2023-04-06T09:39:20;10.27;;;6.90;;
19111;SDS011;9688;51.906;8.376;2023-04-06T09:42:11;9.60;;;6.43;;
19111;SDS011;9688;51.906;8.376;2023-04-06T09:45:14;12.63;;;6.90;;
19111;SDS011;9688;51.906;8.376;2023-04-06T09:48:04;10.43;;;7.03;;
19111;SDS011;9688;51.906;8.376;2023-04-06T09:50:53;12.87;;;7.30;;
19111;SDS011;9688;51.906;8.376;2023-04-06T09:53:45;11.77;;;7.50;;
19111;SDS011;9688;51.906;8.376;2023-04-06T09:56:38;12.30;;;7.50;;
19111;SDS011;9688;51.906;8.376;2023-04-06T09:59:35;11.37;;;7.53;;
19111;SDS011;9688;51.906;8.376;2023-04-06T10:02:32;15.77;;;7.50;;
19111;SDS011;9688;51.906;8.376;2023-04-06T10:05:27;12.07;;;7.27;;
19111;SDS011;9688;51.906;8.376;2023-04-06T10:08:19;12.03;;;7.73;;
19111;SDS011;9688;51.906;8.376;2023-04-06T10:11:09;16.33;;;8.30;;
19111;SDS011;9688;51.906;8.376;2023-04-06T10:13:55;15.03;;;7.90;;
19111;SDS011;9688;51.906;8.376;2023-04-06T10:16:43;11.33;;;7.83;;
19111;SDS011;9688;51.906;8.376;2023-04-06T10:19:31;11.23;;;7.87;;
19111;SDS011;9688;51.906;8.376;2023-04-06T10:22:26;16.07;;;8.20;;
19111;SDS011;9688;51.906;8.376;2023-04-06T10:25:26;14.67;;;8.03;;
19111;SDS011;9688;51.906;8.376;2023-04-06T10:28:12;14.87;;;8.20;;
19111;SDS011;9688;51.906;8.376;2023-04-06T10:30:59;13.20;;;8.40;;
19111;SDS011;9688;51.906;8.376;2023-04-06T10:33:54;14.70;;;8.23;;
19111;SDS011;9688;51.906;8.376;2023-04-06T10:36:41;14.87;;;8.03;;
19111;SDS011;9688;51.906;8.376;2023-04-06T10:39:27;13.53;;;8.60;;
19111;SDS011;9688;51.906;8.376;2023-04-06T10:42:12;15.00;;;8.50;;
19111;SDS011;9688;51.906;8.376;2023-04-06T10:44:59;14.03;;;8.87;;
19111;SDS011;9688;51.906;8.376;2023-04-06T10:47:45;12.90;;;8.50;;
19111;SDS011;9688;51.906;8.376;2023-04-06T10:50:32;15.33;;;8.53;;
19111;SDS011;9688;51.906;8.376;2023-04-06T10:53:21;14.57;;;8.90;;
19111;SDS011;9688;51.906;8.376;2023-04-06T10:56:09;15.10;;;9.37;;
19111;SDS011;9688;51.906;8.376;2023-04-06T10:58:59;14.23;;;8.93;;
19111;SDS011;9688;51.906;8.376;2023-04-06T11:01:48;13.93;;;9.20;;
19111;SDS011;9688;51.906;8.376;2023-04-06T11:04:34;15.40;;;9.53;;
19111;SDS011;9688;51.906;8.376;2023-04-06T11:07:23;19.23;;;10.47;;
19111;SDS011;9688;51.906;8.376;2023-04-06T11:10:11;16.53;;;8.80;;
19111;SDS011;9688;51.906;8.376;2023-04-06T11:13:05;16.37;;;9.93;;
19111;SDS011;9688;51.906;8.376;2023-04-06T11:15:51;15.90;;;9.00;;
19111;SDS011;9688;51.906;8.376;2023-04-06T11:18:37;13.83;;;8.33;;
19111;SDS011;9688;51.906;8.376;2023-04-06T11:21:33;13.30;;;8.40;;
19111;SDS011;9688;51.906;8.376;2023-04-06T11:24:22;13.47;;;7.60;;
19111;SDS011;9688;51.906;8.376;2023-04-06T11:27:09;12.93;;;8.07;;
19111;SDS011;9688;51.906;8.376;2023-04-06T11:29:55;16.33;;;8.63;;
19111;SDS011;9688;51.906;8.376;2023-04-06T11:32:42;14.73;;;8.70;;
19111;SDS011;9688;51.906;8.376;2023-04-06T11:35:30;16.63;;;8.87;;
19111;SDS011;9688;51.906;8.376;2023-04-06T11:38:17;12.03;;;8.20;;
19111;SDS011;9688;51.906;8.376;2023-04-06T11:41:06;11.70;;;7.63;;
19111;SDS011;9688;51.906;8.376;2023-04-06T11:43:54;11.80;;;8.23;;
19111;SDS011;9688;51.906;8.376;2023-04-06T11:46:41;13.67;;;8.13;;
19111;SDS011;9688;51.906;8.376;2023-04-06T11:49:37;13.27;;;8.33;;
19111;SDS011;9688;51.906;8.376;2023-04-06T11:52:25;14.90;;;8.30;;
19111;SDS011;9688;51.906;8.376;2023-04-06T11:55:14;13.40;;;8.13;;
19111;SDS011;9688;51.906;8.376;2023-04-06T11:58:02;22.20;;;8.80;;
19111;SDS011;9688;51.906;8.376;2023-04-06T12:00:49;14.53;;;8.53;;
19111;SDS011;9688;51.906;8.376;2023-04-06T12:03:36;13.40;;;7.97;;
19111;SDS011;9688;51.906;8.376;2023-04-06T12:06:22;16.13;;;8.57;;
19111;SDS011;9688;51.906;8.376;2023-04-06T12:09:09;12.80;;;8.40;;
19111;SDS011;9688;51.906;8.376;2023-04-06T12:11:56;12.30;;;7.27;;
19111;SDS011;9688;51.906;8.376;2023-04-06T12:14:44;10.77;;;7.33;;
19111;SDS011;9688;51.906;8.376;2023-04-06T12:17:29;14.67;;;7.47;;
19111;SDS011;9688;51.906;8.376;2023-04-06T12:20:16;14.07;;;7.63;;
19111;SDS011;9688;51.906;8.376;2023-04-06T12:23:02;11.57;;;7.30;;
19111;SDS011;9688;51.906;8.376;2023-04-06T12:25:49;11.07;;;7.40;;
19111;SDS011;9688;51.906;8.376;2023-04-06T12:28:35;12.00;;;7.33;;
19111;SDS011;9688;51.906;8.376;2023-04-06T12:31:24;11.83;;;7.37;;
19111;SDS011;9688;51.906;8.376;2023-04-06T12:34:10;13.73;;;7.60;;
19111;SDS011;9688;51.906;8.376;2023-04-06T12:36:58;13.57;;;7.90;;
19111;SDS011;9688;51.906;8.376;2023-04-06T12:39:44;12.37;;;7.30;;
19111;SDS011;9688;51.906;8.376;2023-04-06T12:42:30;13.63;;;7.87;;
19111;SDS011;9688;51.906;8.376;2023-04-06T12:45:16;10.47;;;7.83;;
19111;SDS011;9688;51.906;8.376;2023-04-06T12:48:04;11.90;;;7.73;;
19111;SDS011;9688;51.906;8.376;2023-04-06T12:50:54;12.83;;;7.37;;
19111;SDS011;9688;51.906;8.376;2023-04-06T12:53:40;11.87;;;7.80;;
19111;SDS011;9688;51.906;8.376;2023-04-06T12:56:26;11.50;;;7.60;;
19111;SDS011;9688;51.906;8.376;2023-04-06T12:59:13;12.70;;;6.90;;
19111;SDS011;9688;51.906;8.376;2023-04-06T13:02:00;10.57;;;7.23;;
19111;SDS011;9688;51.906;8.376;2023-04-06T13:04:47;13.27;;;7.80;;
19111;SDS011;9688;51.906;8.376;2023-04-06T13:07:34;13.27;;;7.60;;
19111;SDS011;9688;51.906;8.376;2023-04-06T13:10:20;12.87;;;8.43;;
19111;SDS011;9688;51.906;8.376;2023-04-06T13:13:07;11.83;;;8.47;;
19111;SDS011;9688;51.906;8.376;2023-04-06T13:15:53;15.37;;;8.27;;
19111;SDS011;9688;51.906;8.376;2023-04-06T13:18:40;13.33;;;8.23;;
19111;SDS011;9688;51.906;8.376;2023-04-06T13:21:29;17.13;;;9.07;;
19111;SDS011;9688;51.906;8.376;2023-04-06T13:24:21;16.67;;;8.97;;
19111;SDS011;9688;51.906;8.376;2023-04-06T13:27:10;14.70;;;8.20;;
19111;SDS011;9688;51.906;8.376;2023-04-06T13:29:56;14.87;;;8.37;;
19111;SDS011;9688;51.906;8.376;2023-04-06T13:32:42;13.10;;;8.67;;
19111;SDS011;9688;51.906;8.376;2023-04-06T13:35:28;16.20;;;9.17;;
19111;SDS011;9688;51.906;8.376;2023-04-06T13:38:16;14.60;;;9.20;;
19111;SDS011;9688;51.906;8.376;2023-04-06T13:41:02;17.73;;;9.70;;
19111;SDS011;9688;51.906;8.376;2023-04-06T13:43:48;18.03;;;9.63;;
19111;SDS011;9688;51.906;8.376;2023-04-06T13:46:35;13.87;;;8.97;;
19111;SDS011;9688;51.906;8.376;2023-04-06T13:49:22;13.87;;;9.23;;
19111;SDS011;9688;51.906;8.376;2023-04-06T13:52:10;13.13;;;9.07;;
19111;SDS011;9688;51.906;8.376;2023-04-06T13:54:57;22.70;;;10.23;;
19111;SDS011;9688;51.906;8.376;2023-04-06T13:57:43;19.67;;;10.10;;
19111;SDS011;9688;51.906;8.376;2023-04-06T14:00:29;17.00;;;10.40;;
19111;SDS011;9688;51.906;8.376;2023-04-06T14:03:16;18.20;;;10.40;;
19111;SDS011;9688;51.906;8.376;2023-04-06T14:06:09;14.93;;;9.73;;
19111;SDS011;9688;51.906;8.376;2023-04-06T14:08:55;15.83;;;8.90;;
19111;SDS011;9688;51.906;8.376;2023-04-06T14:11:46;15.93;;;9.60;;
19111;SDS011;9688;51.906;8.376;2023-04-06T14:14:34;15.97;;;10.37;;
19111;SDS011;9688;51.906;8.376;2023-04-06T14:17:24;14.97;;;9.70;;
19111;SDS011;9688;51.906;8.376;2023-04-06T14:20:11;18.20;;;10.40;;
19111;SDS011;9688;51.906;8.376;2023-04-06T14:22:59;18.23;;;10.77;;
19111;SDS011;9688;51.906;8.376;2023-04-06T14:25:46;16.73;;;10.60;;
19111;SDS011;9688;51.906;8.376;2023-04-06T14:28:33;18.17;;;10.10;;
19111;SDS011;9688;51.906;8.376;2023-04-06T14:31:19;17.50;;;9.90;;
19111;SDS011;9688;51.906;8.376;2023-04-06T14:34:09;15.77;;;9.47;;
19111;SDS011;9688;51.906;8.376;2023-04-06T14:36:57;16.87;;;10.90;;
19111;SDS011;9688;51.906;8.376;2023-04-06T14:39:43;21.83;;;11.40;;
19111;SDS011;9688;51.906;8.376;2023-04-06T14:42:29;19.57;;;11.37;;
19111;SDS011;9688;51.906;8.376;2023-04-06T14:45:17;17.67;;;10.77;;
19111;SDS011;9688;51.906;8.376;2023-04-06T14:48:03;19.27;;;12.00;;
19111;SDS011;9688;51.906;8.376;2023-04-06T14:50:56;18.47;;;11.30;;
19111;SDS011;9688;51.906;8.376;2023-04-06T14:53:42;17.03;;;11.07;;
19111;SDS011;9688;51.906;8.376;2023-04-06T14:56:28;18.93;;;10.60;;
19111;SDS011;9688;51.906;8.376;2023-04-06T14:59:15;16.27;;;10.23;;
19111;SDS011;9688;51.906;8.376;2023-04-06T15:02:02;21.07;;;11.20;;
19111;SDS011;9688;51.906;8.376;2023-04-06T15:04:48;20.43;;;10.97;;
19111;SDS011;9688;51.906;8.376;2023-04-06T15:07:35;22.10;;;10.63;;
19111;SDS011;9688;51.906;8.376;2023-04-06T15:10:20;19.60;;;11.10;;
19111;SDS011;9688;51.906;8.376;2023-04-06T15:13:06;18.57;;;9.93;;
19111;SDS011;9688;51.906;8.376;2023-04-06T15:15:52;16.20;;;9.73;;
19111;SDS011;9688;51.906;8.376;2023-04-06T15:18:39;17.60;;;9.63;;
19111;SDS011;9688;51.906;8.376;2023-04-06T15:21:25;19.57;;;9.67;;
19111;SDS011;9688;51.906;8.376;2023-04-06T15:24:13;15.07;;;9.17;;
19111;SDS011;9688;51.906;8.376;2023-04-06T15:26:59;15.93;;;9.67;;
19111;SDS011;9688;51.906;8.376;2023-04-06T15:29:45;15.93;;;9.67;;
19111;SDS011;9688;51.906;8.376;2023-04-06T15:32:31;18.77;;;10.20;;
19111;SDS011;9688;51.906;8.376;2023-04-06T15:35:17;18.17;;;9.83;;
19111;SDS011;9688;51.906;8.376;2023-04-06T15:38:04;18.30;;;10.37;;
19111;SDS011;9688;51.906;8.376;2023-04-06T15:40:52;17.30;;;9.93;;
19111;SDS011;9688;51.906;8.376;2023-04-06T15:43:38;16.17;;;10.10;;
19111;SDS011;9688;51.906;8.376;2023-04-06T15:46:24;17.90;;;10.27;;
19111;SDS011;9688;51.906;8.376;2023-04-06T15:49:11;16.33;;;9.70;;
19111;SDS011;9688;51.906;8.376;2023-04-06T15:51:59;16.23;;;9.20;;
19111;SDS011;9688;51.906;8.376;2023-04-06T15:54:45;18.73;;;9.93;;
19111;SDS011;9688;51.906;8.376;2023-04-06T15:57:31;15.27;;;8.63;;
19111;SDS011;9688;51.906;8.376;2023-04-06T16:00:17;19.47;;;9.17;;
19111;SDS011;9688;51.906;8.376;2023-04-06T16:03:03;15.60;;;9.00;;
19111;SDS011;9688;51.906;8.376;2023-04-06T16:05:49;16.43;;;8.73;;
19111;SDS011;9688;51.906;8.376;2023-04-06T16:08:36;17.70;;;9.17;;
19111;SDS011;9688;51.906;8.376;2023-04-06T16:11:23;18.43;;;9.17;;
19111;SDS011;9688;51.906;8.376;2023-04-06T16:14:08;15.60;;;9.27;;
19111;SDS011;9688;51.906;8.376;2023-04-06T16:16:55;17.10;;;9.40;;
19111;SDS011;9688;51.906;8.376;2023-04-06T16:19:42;14.30;;;8.43;;
19111;SDS011;9688;51.906;8.376;2023-04-06T16:22:29;17.10;;;8.33;;
19111;SDS011;9688;51.906;8.376;2023-04-06T16:25:18;14.67;;;8.60;;
19111;SDS011;9688;51.906;8.376;2023-04-06T16:28:04;14.20;;;8.17;;
19111;SDS011;9688;51.906;8.376;2023-04-06T16:30:51;18.53;;;8.90;;
19111;SDS011;9688;51.906;8.376;2023-04-06T16:33:37;15.83;;;8.20;;
19111;SDS011;9688;51.906;8.376;2023-04-06T16:36:25;17.43;;;8.77;;
19111;SDS011;9688;51.906;8.376;2023-04-06T16:39:15;15.17;;;8.37;;
19111;SDS011;9688;51.906;8.376;2023-04-06T16:42:02;15.23;;;9.10;;
19111;SDS011;9688;51.906;8.376;2023-04-06T16:44:48;14.17;;;8.83;;
19111;SDS011;9688;51.906;8.376;2023-04-06T16:47:34;14.30;;;8.27;;
19111;SDS011;9688;51.906;8.376;2023-04-06T16:50:22;14.33;;;8.67;;